Time;durP1;ratioP1;P1;durP2;ratioP2;P2;SDS_P1;SDS_P2;PMS_P1;PMS_P2;Temp;Humidity;BMP_temperature;BMP_pressure;BME280_temperature;BME280_humidity;BME280_pressure;Samples;Min_cycle;Max_cycle;Signal;HPM_P1;HPM_P2
2022/04/30 00:00:58;;;;;;;19.83;10.75;;;;;;;;;;5033452;28;20487;-67
2022/04/30 00:03:27;;;;;;;19.90;10.98;;;6.00;99.90;;;;;;5034784;28;20490;-65
2022/04/30 00:05:53;;;;;;;16.92;10.07;;;;;;;;;;5039651;28;20411;-65
2022/04/30 00:08:19;;;;;;;18.85;10.40;;;5.90;99.90;;;;;;5035564;28;20434;-66
2022/04/30 00:10:45;;;;;;;20.23;10.93;;;;;;;;;;5037787;28;20501;-66
2022/04/30 00:13:11;;;;;;;16.60;10.60;;;6.00;99.90;;;;;;5036112;28;20430;-67
2022/04/30 00:15:37;;;;;;;19.15;10.55;;;;;;;;;;5032186;28;20433;-65
2022/04/30 00:18:04;;;;;;;16.40;11.02;;;;;;;;;;5038160;28;20938;-66
2022/04/30 00:20:30;;;;;;;18.30;10.40;;;;;;;;;;5032924;28;20427;-67
2022/04/30 00:22:56;;;;;;;17.80;10.35;;;;;;;;;;5029182;28;20843;-66
2022/04/30 00:25:23;;;;;;;16.88;10.30;;;;;;;;;;5036173;28;20449;-66
2022/04/30 00:27:49;;;;;;;15.70;9.80;;;;;;;;;;5035219;28;22196;-66
2022/04/30 00:30:15;;;;;;;17.45;10.25;;;;;;;;;;5035317;28;20431;-67
2022/04/30 00:32:42;;;;;;;18.00;10.02;;;;;;;;;;5034823;28;20458;-67
2022/04/30 00:35:08;;;;;;;21.30;10.10;;;;;;;;;;5035679;28;20431;-68
2022/04/30 00:37:35;;;;;;;15.98;9.65;;;;;;;;;;5036471;28;20538;-68
2022/04/30 00:40:02;;;;;;;18.92;10.60;;;;;;;;;;5035886;28;20469;-68
2022/04/30 00:42:28;;;;;;;17.48;10.27;;;6.30;99.90;;;;;;5034288;28;20565;-67
2022/04/30 00:44:54;;;;;;;16.50;10.13;;;;;;;;;;5035700;28;20859;-67
2022/04/30 00:47:20;;;;;;;15.95;9.73;;;;;;;;;;5016666;28;20504;-68
2022/04/30 00:49:47;;;;;;;14.55;9.90;;;;;;;;;;5035050;28;20976;-68
2022/04/30 00:52:15;;;;;;;20.45;11.18;;;;;;;;;;5018753;28;20427;-68
2022/04/30 00:54:42;;;;;;;18.40;10.27;;;;;;;;;;5034133;28;20437;-68
2022/04/30 00:57:13;;;;;;;17.02;9.90;;;;;;;;;;5035756;28;20495;-68
2022/04/30 00:59:41;;;;;;;17.40;10.05;;;;;;;;;;5032540;28;20438;-68
2022/04/30 01:02:10;;;;;;;16.52;10.15;;;;;;;;;;5035286;28;20431;-67
2022/04/30 01:04:36;;;;;;;18.80;10.30;;;5.80;99.90;;;;;;5035722;28;20435;-67
2022/04/30 01:07:10;;;;;;;19.58;10.25;;;;;;;;;;5031763;28;20441;-68
2022/04/30 01:09:39;;;;;;;18.27;10.40;;;;;;;;;;5027977;28;20435;-67
2022/04/30 01:12:10;;;;;;;17.42;10.02;;;;;;;;;;5031673;28;20445;-68
2022/04/30 01:14:40;;;;;;;18.13;10.65;;;5.60;99.90;;;;;;5035895;28;20431;-67
2022/04/30 01:17:08;;;;;;;17.52;10.55;;;;;;;;;;5034539;28;20441;-68
2022/04/30 01:19:39;;;;;;;16.40;10.10;;;;;;;;;;5033205;28;20427;-68
2022/04/30 01:22:24;;;;;;;20.38;11.02;;;;;;;;;;5038217;28;20422;-68
2022/04/30 01:24:53;;;;;;;17.17;10.82;;;;;;;;;;5031350;28;20462;-68
2022/04/30 01:27:19;;;;;;;17.67;10.55;;;;;;;;;;5038392;28;20415;-68
2022/04/30 01:29:45;;;;;;;18.27;10.63;;;;;;;;;;5034885;28;20435;-67
2022/04/30 01:37:41;;;;;;;16.08;10.60;;;;;;;;;;5033510;28;20422;-67
2022/04/30 01:40:09;;;;;;;15.85;10.50;;;;;;;;;;5028187;28;20415;-67
2022/04/30 01:42:44;;;;;;;17.67;10.98;;;;;;;;;;5032982;28;20431;-67
2022/04/30 01:45:11;;;;;;;18.35;10.60;;;;;;;;;;5033614;28;20558;-67
2022/04/30 01:47:39;;;;;;;16.75;10.48;;;;;;;;;;5034445;28;21038;-67
2022/04/30 01:50:05;;;;;;;17.45;10.80;;;;;;;;;;5035768;28;20429;-67
2022/04/30 01:52:31;;;;;;;17.25;10.60;;;;;;;;;;5034518;28;20430;-66
2022/04/30 01:54:58;;;;;;;19.50;10.93;;;;;;;;;;5030795;28;20438;-67
2022/04/30 01:57:25;;;;;;;19.98;11.07;;;;;;;;;;5036253;28;20427;-67
2022/04/30 02:00:00;;;;;;;16.40;10.80;;;5.90;99.90;;;;;;5031198;28;20441;-66
2022/04/30 02:02:34;;;;;;;16.60;10.80;;;;;;;;;;5034710;28;20427;-68
2022/04/30 02:05:03;;;;;;;18.50;10.95;;;;;;;;;;5027689;28;20514;-68
2022/04/30 02:07:29;;;;;;;17.23;11.00;;;;;;;;;;5034997;28;20441;-68
2022/04/30 02:09:57;;;;;;;16.93;10.70;;;;;;;;;;5035171;28;20965;-68
2022/04/30 02:12:25;;;;;;;18.52;11.52;;;5.90;99.90;;;;;;5028210;28;20514;-68
2022/04/30 02:14:55;;;;;;;19.55;10.60;;;;;;;;;;5035182;28;20969;-67
2022/04/30 02:17:23;;;;;;;23.23;11.38;;;5.90;99.90;;;;;;5041739;28;20423;-67
2022/04/30 02:22:38;;;;;;;19.17;11.13;;;;;;;;;;5036160;28;20430;-67
2022/04/30 02:25:11;;;;;;;17.23;10.82;;;6.00;99.90;;;;;;5036139;28;20426;-68
2022/04/30 02:27:42;;;;;;;20.17;12.30;;;;;;;;;;5040284;28;20818;-69
2022/04/30 02:30:11;;;;;;;18.23;11.25;;;6.00;99.90;;;;;;5037917;28;20441;-68
2022/04/30 02:32:40;;;;;;;18.83;10.80;;;;;;;;;;5038903;28;20415;-68
2022/04/30 02:35:07;;;;;;;20.13;11.63;;;;;;;;;;5037416;28;20676;-68
2022/04/30 02:37:35;;;;;;;17.02;10.77;;;;;;;;;;5037051;28;20473;-68
2022/04/30 02:40:01;;;;;;;18.50;11.02;;;;;;;;;;5038857;28;20414;-66
2022/04/30 02:42:27;;;;;;;17.00;11.70;;;;;;;;;;5038877;28;20435;-68
2022/04/30 02:44:53;;;;;;;16.77;11.05;;;;;;;;;;5034811;28;20423;-68
2022/04/30 02:47:19;;;;;;;16.80;10.70;;;;;;;;;;5040481;28;20446;-68
2022/04/30 02:49:45;;;;;;;19.40;11.18;;;;;;;;;;5037017;28;21028;-68
2022/04/30 02:52:11;;;;;;;17.03;10.80;;;5.80;99.90;;;;;;5022286;28;20442;-67
2022/04/30 02:54:37;;;;;;;15.77;10.50;;;6.10;99.90;;;;;;5035032;28;20909;-68
2022/04/30 02:57:03;;;;;;;16.73;10.57;;;;;;;;;;5036609;28;21287;-68
2022/04/30 03:02:14;;;;;;;16.40;10.48;;;5.80;99.90;;;;;;5038410;28;20443;-68
2022/04/30 03:04:40;;;;;;;16.97;11.23;;;;;;;;;;5034054;28;22748;-68
2022/04/30 03:07:11;;;;;;;19.02;11.02;;;;;;;;;;5037383;28;20434;-68
2022/04/30 03:09:38;;;;;;;15.45;10.85;;;;;;;;;;5038546;28;20431;-68
2022/04/30 03:12:04;;;;;;;15.10;11.18;;;;;;;;;;5048590;28;20411;-68
2022/04/30 03:14:30;;;;;;;15.95;10.68;;;;;;;;;;5038825;28;20435;-68
2022/04/30 03:22:25;;;;;;;16.92;10.98;;;;;;;;;;5037149;28;20428;-68
2022/04/30 03:24:51;;;;;;;17.13;10.82;;;;;;;;;;5030937;28;20447;-68
2022/04/30 03:27:18;;;;;;;16.77;11.40;;;;;;;;;;5036771;28;20423;-68
2022/04/30 03:29:46;;;;;;;17.08;10.95;;;;;;;;;;5038723;28;20774;-68
2022/04/30 03:32:12;;;;;;;15.77;10.65;;;;;;;;;;5036469;28;20429;-67
2022/04/30 03:34:39;;;;;;;16.77;10.90;;;;;;;;;;5039287;28;20438;-68
2022/04/30 03:37:05;;;;;;;16.40;10.80;;;;;;;;;;5039383;28;20468;-68
2022/04/30 03:39:31;;;;;;;14.45;10.32;;;;;;;;;;5042254;28;20855;-69
2022/04/30 03:41:57;;;;;;;18.23;11.40;;;;;;;;;;5033549;28;20415;-68
2022/04/30 03:44:23;;;;;;;17.10;12.02;;;;;;;;;;5038232;28;20429;-68
2022/04/30 03:46:50;;;;;;;17.05;11.55;;;;;;;;;;5036293;28;20435;-68
2022/04/30 03:49:16;;;;;;;17.85;11.35;;;;;;;;;;5036459;28;20434;-68
2022/04/30 03:51:42;;;;;;;17.30;11.73;;;;;;;;;;5037299;28;20423;-68
2022/04/30 03:54:08;;;;;;;18.70;11.75;;;5.80;99.90;;;;;;5036254;28;20422;-68
2022/04/30 03:56:34;;;;;;;17.10;11.90;;;;;;;;;;5036177;28;20504;-68
2022/04/30 03:59:01;;;;;;;18.70;13.80;;;;;;;;;;5037515;28;20446;-68
2022/04/30 04:01:27;;;;;;;19.57;11.97;;;;;;;;;;5036590;28;20869;-68
2022/04/30 04:03:54;;;;;;;16.17;11.45;;;;;;;;;;5037655;28;20496;-68
2022/04/30 04:06:20;;;;;;;19.23;11.60;;;;;;;;;;5037168;28;20512;-69
2022/04/30 04:08:51;;;;;;;18.63;11.85;;;5.60;99.90;;;;;;5037177;28;20482;-68
2022/04/30 04:11:17;;;;;;;16.95;11.63;;;5.90;99.90;;;;;;5032211;28;20437;-69
2022/04/30 04:19:13;;;;;;;15.17;10.93;;;;;;;;;;5036215;28;20822;-68
2022/04/30 04:21:39;;;;;;;18.35;11.93;;;;;;;;;;5038443;28;20433;-68
2022/04/30 04:26:50;;;;;;;15.10;11.65;;;;;;;;;;5038121;28;20428;-68
2022/04/30 04:29:16;;;;;;;16.60;10.80;;;;;;;;;;5035473;28;20509;-68
2022/04/30 04:31:46;;;;;;;19.35;11.95;;;;;;;;;;5036395;28;20549;-68
2022/04/30 04:34:12;;;;;;;19.13;12.73;;;;;;;;;;5035578;28;20423;-68
2022/04/30 04:36:39;;;;;;;21.27;13.55;;;;;;;;;;5037076;28;20423;-69
2022/04/30 04:39:09;;;;;;;17.05;11.80;;;;;;;;;;5037404;28;20435;-68
2022/04/30 04:41:35;;;;;;;18.05;12.85;;;;;;;;;;5033627;28;20506;-68
2022/04/30 04:44:02;;;;;;;18.00;12.20;;;;;;;;;;5035911;28;20430;-68
2022/04/30 04:46:29;;;;;;;17.07;11.43;;;;;;;;;;5035497;28;20414;-68
2022/04/30 04:48:55;;;;;;;17.30;11.90;;;;;;;;;;5039005;28;20459;-67
2022/04/30 04:51:21;;;;;;;17.33;12.45;;;;;;;;;;5034737;28;20427;-67
2022/04/30 04:53:47;;;;;;;15.20;11.00;;;;;;;;;;5034294;28;20468;-67
2022/04/30 04:56:13;;;;;;;16.60;11.35;;;;;;;;;;5035342;28;20486;-67
2022/04/30 04:58:40;;;;;;;16.80;11.45;;;;;;;;;;5032719;28;20433;-68
2022/04/30 05:01:06;;;;;;;15.43;11.35;;;;;;;;;;5036450;28;20423;-68
2022/04/30 05:03:32;;;;;;;14.97;11.50;;;;;;;;;;5033299;28;20445;-67
2022/04/30 05:05:58;;;;;;;19.00;12.02;;;;;;;;;;5037618;28;20466;-68
2022/04/30 05:08:24;;;;;;;15.60;11.38;;;;;;;;;;5036407;28;20434;-67
2022/04/30 05:10:51;;;;;;;17.17;11.35;;;;;;;;;;5033091;28;20446;-68
2022/04/30 05:13:17;;;;;;;17.88;12.30;;;;;;;;;;5036014;28;20427;-68
2022/04/30 05:15:43;;;;;;;17.73;11.38;;;;;;;;;;5033840;28;20422;-67
2022/04/30 05:18:09;;;;;;;16.75;11.82;;;;;;;;;;5035849;28;20977;-69
2022/04/30 05:20:35;;;;;;;17.13;11.30;;;6.60;99.90;;;;;;5033224;28;20883;-67
2022/04/30 05:23:01;;;;;;;17.77;11.82;;;;;;;;;;5035751;28;20424;-68
2022/04/30 05:25:27;;;;;;;16.80;12.02;;;;;;;;;;5034170;28;20853;-67
2022/04/30 05:27:53;;;;;;;18.47;11.47;;;;;;;;;;5036704;28;20438;-68
2022/04/30 05:30:19;;;;;;;20.23;11.38;;;;;;;;;;5037036;28;20430;-68
2022/04/30 05:32:45;;;;;;;14.43;11.57;;;;;;;;;;5032666;28;20419;-68
2022/04/30 05:35:11;;;;;;;17.00;11.70;;;;;;;;;;5034251;28;20454;-68
2022/04/30 05:37:39;;;;;;;16.58;11.57;;;;;;;;;;5035912;28;20427;-69
2022/04/30 05:40:05;;;;;;;15.80;11.18;;;;;;;;;;5035732;28;20427;-67
2022/04/30 05:42:31;;;;;;;18.58;10.95;;;6.80;99.90;;;;;;5032436;28;20431;-67
2022/04/30 05:44:58;;;;;;;19.33;11.73;;;;;;;;;;5034146;28;20431;-67
2022/04/30 05:47:24;;;;;;;18.15;11.45;;;;;;;;;;5034011;28;20434;-68
2022/04/30 05:49:51;;;;;;;17.80;11.10;;;;;;;;;;5017980;28;20494;-67
2022/04/30 05:52:19;;;;;;;15.77;11.65;;;;;;;;;;5040248;28;20796;-68
2022/04/30 05:54:46;;;;;;;16.17;11.50;;;;;;;;;;5036853;28;20495;-67
2022/04/30 05:57:12;;;;;;;16.70;10.70;;;;;;;;;;5039747;28;20438;-69
2022/04/30 05:59:38;;;;;;;16.80;11.00;;;;;;;;;;5037056;28;20508;-68
2022/04/30 06:02:04;;;;;;;16.50;11.90;;;;;;;;;;5035875;28;20513;-68
2022/04/30 06:04:30;;;;;;;15.15;10.63;;;;;;;;;;5022307;28;20431;-67
2022/04/30 06:06:58;;;;;;;15.33;10.77;;;;;;;;;;5037241;28;20947;-68
2022/04/30 06:09:24;;;;;;;15.32;10.82;;;;;;;;;;5039568;28;20497;-68
2022/04/30 06:11:51;;;;;;;17.02;10.80;;;;;;;;;;5032651;28;20422;-68
2022/04/30 06:14:17;;;;;;;15.23;10.90;;;;;;;;;;5022885;28;20510;-68
2022/04/30 06:16:43;;;;;;;19.65;12.00;;;7.70;99.90;;;;;;5035497;28;20426;-67
2022/04/30 06:19:09;;;;;;;16.43;11.10;;;;;;;;;;5038672;28;20523;-67
2022/04/30 06:21:35;;;;;;;17.20;11.07;;;;;;;;;;5039776;28;20430;-67
2022/04/30 06:24:01;;;;;;;20.50;11.52;;;;;;;;;;5038549;28;21016;-68
2022/04/30 06:26:27;;;;;;;15.73;10.88;;;;;;;;;;5036474;28;20435;-68
2022/04/30 06:28:55;;;;;;;20.10;11.50;;;;;;;;;;5039010;28;20538;-68
2022/04/30 06:31:22;;;;;;;17.95;10.90;;;;;;;;;;5039961;28;20502;-67
2022/04/30 06:33:48;;;;;;;19.05;11.60;;;8.20;99.90;;;;;;5038077;28;20423;-67
2022/04/30 06:36:14;;;;;;;18.42;10.50;;;;;;;;;;5031352;28;20438;-68
2022/04/30 06:38:40;;;;;;;21.10;11.30;;;;;;;;;;5035145;28;20423;-67
2022/04/30 06:41:06;;;;;;;23.00;11.67;;;;;;;;;;5035384;28;20463;-67
2022/04/30 06:43:32;;;;;;;16.73;10.77;;;;;;;;;;5039408;28;20426;-68
2022/04/30 06:45:58;;;;;;;16.05;11.07;;;;;;;;;;5035562;28;20418;-67
2022/04/30 06:48:24;;;;;;;15.73;10.93;;;;;;;;;;5034956;28;20434;-67
2022/04/30 06:50:51;;;;;;;16.25;11.73;;;;;;;;;;5035478;28;20964;-68
2022/04/30 06:58:50;;;;;;;19.77;13.50;;;;;;;;;;5033893;28;20447;-67
2022/04/30 07:04:05;;;;;;;14.52;10.98;;;8.80;99.90;;;;;;5036272;28;20431;-68
2022/04/30 07:06:35;;;;;;;19.75;10.80;;;;;;;;;;5019565;28;20434;-66
2022/04/30 07:09:02;;;;;;;15.15;10.27;;;;;;;;;;5033104;28;20524;-66
2022/04/30 07:11:28;;;;;;;15.77;9.82;;;;;;;;;;5035724;28;20418;-67
2022/04/30 07:13:54;;;;;;;14.55;10.10;;;;;;;;;;5038909;28;20423;-67
2022/04/30 07:16:20;;;;;;;16.92;10.65;;;;;;;;;;5035392;28;21005;-68
2022/04/30 07:18:46;;;;;;;15.10;10.40;;;;;;;;;;5035377;28;20427;-68
2022/04/30 07:21:12;;;;;;;20.08;9.95;;;9.00;99.90;;;;;;5035426;28;20552;-68
2022/04/30 07:23:38;;;;;;;14.13;10.15;;;;;;;;;;5038928;28;20501;-67
2022/04/30 07:26:04;;;;;;;15.40;10.47;;;;;;;;;;5039039;28;20480;-68
2022/04/30 07:28:33;;;;;;;14.98;9.68;;;;;;;;;;5036520;28;20431;-68
2022/04/30 07:31:00;;;;;;;11.98;8.90;;;;;;;;;;5038749;28;20458;-67
2022/04/30 07:33:26;;;;;;;14.48;8.70;;;;;;;;;;5034841;28;20454;-67
2022/04/30 07:35:53;;;;;;;11.00;8.03;;;;;;;;;;5021872;28;20526;-67
2022/04/30 07:38:19;;;;;;;12.50;7.47;;;;;;;;;;5034937;28;20444;-67
2022/04/30 07:40:45;;;;;;;10.93;7.45;;;;;;;;;;5035184;28;20427;-67
2022/04/30 07:43:11;;;;;;;12.57;7.72;;;;;;;;;;5039320;28;20449;-68
2022/04/30 07:45:37;;;;;;;11.13;6.70;;;10.30;99.90;;;;;;5035876;28;20437;-67
2022/04/30 07:48:04;;;;;;;12.02;6.20;;;;;;;;;;5036566;28;21162;-67
2022/04/30 07:50:36;;;;;;;12.13;7.55;;;;;;;;;;5031401;28;20434;-67
2022/04/30 07:53:03;;;;;;;16.10;7.70;;;;;;;;;;5037444;28;20434;-68
2022/04/30 07:55:29;;;;;;;13.30;7.90;;;;;;;;;;5037736;28;20415;-66
2022/04/30 07:57:57;;;;;;;13.43;7.77;;;;;;;;;;5030813;28;20439;-68
2022/04/30 08:00:23;;;;;;;12.23;7.50;;;;;;;;;;5035896;28;20485;-68
2022/04/30 08:02:56;;;;;;;11.60;7.78;;;;;;;;;;5032298;28;20439;-68
2022/04/30 08:05:23;;;;;;;12.07;7.80;;;;;;;;;;5021716;28;20423;-67
2022/04/30 08:07:49;;;;;;;14.55;7.53;;;;;;;;;;5035457;28;20431;-68
2022/04/30 08:10:15;;;;;;;11.40;7.43;;;;;;;;;;5033627;28;20411;-68
2022/04/30 08:12:41;;;;;;;11.27;8.05;;;;;;;;;;5035910;28;20469;-66
2022/04/30 08:15:09;;;;;;;13.00;7.68;;;11.50;99.90;;;;;;5033454;28;20434;-69
2022/04/30 08:17:38;;;;;;;11.35;7.30;;;;;;;;;;5033505;28;20437;-69
2022/04/30 08:20:08;;;;;;;15.48;7.82;;;;;;;;;;5027564;28;21087;-68
2022/04/30 08:22:34;;;;;;;11.40;7.30;;;;;;;;;;5037987;28;20470;-68
2022/04/30 08:25:01;;;;;;;15.13;7.38;;;;;;;;;;5035602;28;20435;-68
2022/04/30 08:27:27;;;;;;;10.68;6.63;;;;;;;;;;5031696;28;20435;-68
2022/04/30 08:29:53;;;;;;;13.27;6.97;;;;;;;;;;5036169;28;21039;-68
2022/04/30 08:32:23;;;;;;;15.73;7.65;;;;;;;;;;5030772;28;21457;-67
2022/04/30 08:34:49;;;;;;;12.63;6.90;;;;;;;;;;5036383;28;20415;-69
2022/04/30 08:37:16;;;;;;;14.80;6.88;;;;;;;;;;5036764;28;20443;-67
2022/04/30 08:39:43;;;;;;;14.30;6.40;;;;;;;;;;5035077;28;20423;-69
2022/04/30 08:42:09;;;;;;;7.93;5.93;;;12.00;99.90;;;;;;5032944;28;20435;-67
2022/04/30 08:44:37;;;;;;;7.80;5.50;;;;;;;;;;5037554;28;20439;-68
2022/04/30 08:47:04;;;;;;;10.73;5.90;;;12.60;99.90;;;;;;5036157;28;20496;-69
2022/04/30 08:49:34;;;;;;;8.20;5.55;;;;;;;;;;5036074;28;20422;-68
2022/04/30 08:52:00;;;;;;;8.18;5.70;;;;;;;;;;5033028;28;20435;-67
2022/04/30 08:54:26;;;;;;;9.20;5.50;;;;;;;;;;5032541;28;20429;-68
2022/04/30 08:56:54;;;;;;;8.73;5.70;;;12.80;99.90;;;;;;5037014;28;20427;-68
2022/04/30 08:59:20;;;;;;;11.30;6.60;;;;;;;;;;5033274;28;20862;-68
2022/04/30 09:01:50;;;;;;;9.80;6.07;;;;;;;;;;5035664;28;20442;-69
2022/04/30 09:04:17;;;;;;;9.65;5.68;;;;;;;;;;5016502;28;20439;-69
2022/04/30 09:06:44;;;;;;;7.13;5.47;;;;;;;;;;5032117;28;20516;-68
2022/04/30 09:09:10;;;;;;;7.72;5.25;;;;;;;;;;5035657;28;20430;-67
2022/04/30 09:11:38;;;;;;;8.23;5.57;;;;;;;;;;5031660;28;20850;-68
2022/04/30 09:14:04;;;;;;;9.57;5.87;;;;;;;;;;5029625;28;20480;-68
2022/04/30 09:16:30;;;;;;;9.23;5.97;;;;;;;;;;5033093;28;21104;-68
2022/04/30 09:19:03;;;;;;;10.02;6.20;;;;;;;;;;5051488;28;20435;-69
2022/04/30 09:21:29;;;;;;;10.07;5.70;;;;;;;;;;5036160;28;20431;-68
2022/04/30 09:24:05;;;;;;;6.22;5.15;;;;;;;;;;5015279;28;20558;-69
2022/04/30 09:26:41;;;;;;;11.43;6.07;;;;;;;;;;5034123;28;20437;-68
2022/04/30 09:29:20;;;;;;;8.80;5.47;;;;;;;;;;5027422;28;20434;-68
2022/04/30 09:31:53;;;;;;;9.15;5.72;;;;;;;;;;5034775;28;20431;-68
2022/04/30 09:39:50;;;;;;;8.48;6.03;;;12.20;99.90;;;;;;5029248;28;20415;-68
2022/04/30 09:42:17;;;;;;;9.82;6.22;;;;;;;;;;5032644;28;20427;-67
2022/04/30 09:44:43;;;;;;;8.90;6.10;;;;;;;;;;5034385;28;20446;-68
2022/04/30 09:47:09;;;;;;;10.70;6.30;;;;;;;;;;5036529;28;20434;-68
2022/04/30 09:55:07;;;;;;;9.05;5.70;;;;;;;;;;5028142;28;20426;-68
2022/04/30 09:57:35;;;;;;;8.87;5.47;;;;;;;;;;5009792;28;20505;-68
2022/04/30 10:00:03;;;;;;;8.73;5.38;;;12.70;99.90;;;;;;5035543;28;20431;-67
2022/04/30 10:02:31;;;;;;;9.25;5.40;;;;;;;;;;5032474;28;20423;-67
2022/04/30 10:04:58;;;;;;;7.32;5.32;;;;;;;;;;5037532;28;20442;-68
2022/04/30 10:07:25;;;;;;;10.15;5.88;;;12.80;99.90;;;;;;5032283;28;20434;-69
2022/04/30 10:09:59;;;;;;;9.73;5.80;;;;;;;;;;5033388;28;20434;-68
2022/04/30 10:12:31;;;;;;;9.32;6.10;;;;;;;;;;5029527;28;20435;-68
2022/04/30 10:14:57;;;;;;;9.52;5.72;;;;;;;;;;5033139;28;20469;-68
2022/04/30 10:17:25;;;;;;;9.23;5.80;;;;;;;;;;5037633;28;20427;-69
2022/04/30 10:20:01;;;;;;;10.27;6.03;;;;;;;;;;5033870;28;20433;-68
2022/04/30 10:22:28;;;;;;;8.45;5.63;;;;;;;;;;5037134;28;20442;-68
2022/04/30 10:24:56;;;;;;;8.67;5.63;;;;;;;;;;5034982;28;20917;-68
2022/04/30 10:27:23;;;;;;;8.15;5.55;;;;;;;;;;5034382;28;20424;-68
2022/04/30 10:29:59;;;;;;;7.75;5.70;;;;;;;;;;5036078;28;20418;-67
2022/04/30 10:32:25;;;;;;;9.68;5.63;;;;;;;;;;5035432;28;20435;-68
2022/04/30 10:34:52;;;;;;;9.23;5.95;;;;;;;;;;5030744;28;20435;-67
2022/04/30 10:37:32;;;;;;;7.53;4.90;;;;;;;;;;5017344;28;20493;-69
2022/04/30 10:39:59;;;;;;;7.55;5.15;;;;;;;;;;5031294;28;20414;-69
2022/04/30 10:42:29;;;;;;;8.83;5.43;;;11.80;99.90;;;;;;5034689;28;20423;-67
2022/04/30 10:44:55;;;;;;;7.82;5.22;;;;;;;;;;5037489;28;20484;-67
2022/04/30 10:47:22;;;;;;;9.25;5.72;;;;;;;;;;5032513;28;20458;-68
2022/04/30 10:49:49;;;;;;;8.52;5.63;;;;;;;;;;5027723;28;20415;-69
2022/04/30 10:52:21;;;;;;;8.10;5.60;;;;;;;;;;5030161;28;20428;-68
2022/04/30 10:54:49;;;;;;;8.68;6.05;;;;;;;;;;5021980;28;20411;-68
2022/04/30 10:57:15;;;;;;;9.90;6.10;;;;;;;;;;5041619;28;20426;-69
2022/04/30 10:59:41;;;;;;;10.23;6.30;;;;;;;;;;5040299;28;20411;-68
2022/04/30 11:02:11;;;;;;;10.00;6.18;;;;;;;;;;5037693;28;20445;-68
2022/04/30 11:04:37;;;;;;;8.30;6.07;;;;;;;;;;5014559;28;20439;-68
2022/04/30 11:07:03;;;;;;;10.05;6.40;;;;;;;;;;5027739;28;20530;-69
2022/04/30 11:09:29;;;;;;;10.80;7.53;;;;;;;;;;5023232;28;20413;-69
2022/04/30 11:11:56;;;;;;;11.27;6.90;;;;;;;;;;5034460;28;20419;-68
2022/04/30 11:14:24;;;;;;;9.57;5.97;;;;;;;;;;5039625;28;20425;-68
2022/04/30 11:16:50;;;;;;;10.77;6.97;;;;;;;;;;5035463;28;20453;-68
2022/04/30 11:19:17;;;;;;;12.65;7.00;;;;;;;;;;5016275;28;20437;-68
2022/04/30 11:21:44;;;;;;;12.57;7.00;;;;;;;;;;5038661;28;20423;-68
2022/04/30 11:24:11;;;;;;;10.73;6.30;;;;;;;;;;5035181;28;20439;-68
2022/04/30 11:26:40;;;;;;;9.00;7.07;;;;;;;;;;5020448;28;20422;-68
2022/04/30 11:29:10;;;;;;;9.43;6.80;;;;;;;;;;5027841;28;20471;-69
2022/04/30 11:31:36;;;;;;;9.57;6.65;;;;;;;;;;5032701;28;20453;-68
2022/04/30 11:34:13;;;;;;;11.90;6.65;;;12.00;99.90;;;;;;5036017;28;20498;-68
2022/04/30 11:36:40;;;;;;;10.93;6.53;;;;;;;;;;5034422;28;20423;-70
2022/04/30 11:39:07;;;;;;;10.88;6.55;;;;;;;;;;5039765;28;20419;-69
2022/04/30 11:41:38;;;;;;;8.68;6.40;;;;;;;;;;5019245;28;20430;-68
2022/04/30 11:44:04;;;;;;;11.48;6.28;;;;;;;;;;5039411;28;20422;-68
2022/04/30 11:46:30;;;;;;;10.38;5.47;;;12.50;99.90;;;;;;5007492;28;20419;-68
2022/04/30 11:48:56;;;;;;;9.07;5.80;;;;;;;;;;5031514;28;20433;-69
2022/04/30 11:51:26;;;;;;;7.85;5.10;;;12.60;99.90;;;;;;5034502;28;20426;-67
2022/04/30 11:53:52;;;;;;;9.65;5.32;;;;;;;;;;5035691;28;20923;-68
2022/04/30 11:56:18;;;;;;;8.87;5.40;;;;;;;;;;5030426;28;21096;-68
2022/04/30 11:58:45;;;;;;;8.48;5.10;;;;;;;;;;5031559;28;20437;-68
2022/04/30 12:01:21;;;;;;;9.07;5.05;;;;;;;;;;5041522;28;20407;-68
2022/04/30 12:03:52;;;;;;;10.07;5.25;;;12.80;99.90;;;;;;5036993;28;20434;-68
2022/04/30 12:06:20;;;;;;;10.35;5.15;;;;;;;;;;5038184;28;20442;-67
2022/04/30 12:08:46;;;;;;;9.82;5.00;;;;;;;;;;5040571;28;20430;-66
2022/04/30 12:11:14;;;;;;;8.55;5.63;;;;;;;;;;5037148;28;21323;-68
2022/04/30 12:13:40;;;;;;;10.13;5.65;;;;;;;;;;5023837;28;20403;-67
2022/04/30 12:16:07;;;;;;;8.93;5.80;;;12.70;99.90;;;;;;5034854;28;20430;-68
2022/04/30 12:26:59;;;;;;;10.57;5.50;;;;;;;;;;5041181;28;20474;-67
2022/04/30 12:29:26;;;;;;;9.88;6.00;;;;;;;;;;5021045;28;20435;-65
2022/04/30 12:31:52;;;;;;;10.15;6.35;;;;;;;;;;5036829;28;20444;-68
2022/04/30 12:34:19;;;;;;;10.30;5.93;;;;;;;;;;5039642;28;20470;-67
2022/04/30 12:36:57;;;;;;;11.50;6.22;;;;;;;;;;5036982;28;20431;-67
2022/04/30 12:39:23;;;;;;;9.88;5.60;;;;;;;;;;5023576;28;20786;-67
2022/04/30 12:41:50;;;;;;;8.63;5.97;;;;;;;;;;5037112;28;20410;-67
2022/04/30 12:44:16;;;;;;;8.55;5.90;;;;;;;;;;5038080;28;20443;-67
2022/04/30 12:46:46;;;;;;;11.02;6.70;;;;;;;;;;5036852;28;20427;-67
2022/04/30 12:49:13;;;;;;;11.10;6.40;;;;;;;;;;5038203;28;20426;-68
2022/04/30 12:51:43;;;;;;;9.02;6.00;;;;;;;;;;5039535;28;20451;-67
2022/04/30 12:54:13;;;;;;;11.70;6.15;;;;;;;;;;5038220;28;20438;-67
2022/04/30 12:56:43;;;;;;;11.25;6.40;;;;;;;;;;5036905;28;20553;-66
2022/04/30 12:59:09;;;;;;;11.48;6.20;;;;;;;;;;5000821;28;20413;-67
2022/04/30 13:01:37;;;;;;;10.25;6.07;;;;;;;;;;5029364;28;20454;-68
2022/04/30 13:04:04;;;;;;;14.63;6.32;;;;;;;;;;5038678;28;20419;-68
2022/04/30 13:06:30;;;;;;;10.75;6.00;;;;;;;;;;5038547;28;20415;-68
2022/04/30 13:14:26;;;;;;;12.45;6.53;;;;;;;;;;5037023;28;20423;-67
2022/04/30 13:16:52;;;;;;;10.38;6.65;;;12.70;99.90;;;;;;5036944;28;20423;-67
2022/04/30 13:19:18;;;;;;;12.27;6.90;;;;;;;;;;5038529;28;20411;-67
2022/04/30 13:21:47;;;;;;;12.15;6.32;;;;;;;;;;5039082;28;20431;-67
2022/04/30 13:24:14;;;;;;;10.52;6.72;;;;;;;;;;5036648;28;20404;-68
2022/04/30 13:26:41;;;;;;;10.98;6.57;;;;;;;;;;5038944;28;20466;-68
2022/04/30 13:29:10;;;;;;;9.38;6.35;;;;;;;;;;5019280;28;20849;-68
2022/04/30 13:31:37;;;;;;;10.23;6.47;;;;;;;;;;5037480;28;20764;-68
2022/04/30 13:34:03;;;;;;;11.10;6.57;;;;;;;;;;5037922;28;20435;-67
2022/04/30 13:36:29;;;;;;;12.57;7.50;;;;;;;;;;5036229;28;20422;-68
2022/04/30 13:38:55;;;;;;;10.90;7.10;;;;;;;;;;5037097;28;20422;-67
2022/04/30 13:41:21;;;;;;;10.40;7.25;;;11.90;99.90;;;;;;5036218;28;20410;-68
2022/04/30 13:43:47;;;;;;;10.73;6.82;;;;;;;;;;5039940;28;20429;-67
2022/04/30 13:46:13;;;;;;;9.35;5.97;;;12.00;99.90;;;;;;5035633;28;20415;-67
2022/04/30 13:48:40;;;;;;;10.25;6.20;;;;;;;;;;5039546;28;20477;-66
2022/04/30 13:51:06;;;;;;;11.32;7.15;;;11.90;99.90;;;;;;5039117;28;20562;-66
2022/04/30 13:53:32;;;;;;;11.98;7.10;;;;;;;;;;5019514;28;20458;-67
2022/04/30 13:55:58;;;;;;;10.98;7.38;;;;;;;;;;5038622;28;20403;-67
2022/04/30 13:58:24;;;;;;;10.27;6.90;;;;;;;;;;5035260;28;20450;-68
2022/04/30 14:00:50;;;;;;;11.50;6.90;;;;;;;;;;5038107;28;20419;-67
2022/04/30 14:03:17;;;;;;;10.03;6.90;;;;;;;;;;5037277;28;20817;-67
2022/04/30 14:05:44;;;;;;;10.43;6.35;;;;;;;;;;5036031;28;20454;-68
2022/04/30 14:08:12;;;;;;;10.87;6.40;;;;;;;;;;5037340;28;20434;-67
2022/04/30 14:10:38;;;;;;;11.02;6.07;;;;;;;;;;5037995;28;20423;-68
2022/04/30 14:15:50;;;;;;;9.30;5.63;;;;;;;;;;5037722;28;20474;-66
2022/04/30 14:18:16;;;;;;;10.18;5.70;;;;;;;;;;5043426;28;20438;-67
2022/04/30 14:20:43;;;;;;;10.38;5.68;;;12.90;99.90;;;;;;5041308;28;20456;-67
2022/04/30 14:23:13;;;;;;;10.13;5.40;;;;;;;;;;5042165;28;20518;-67
2022/04/30 14:25:40;;;;;;;10.10;5.53;;;;;;;;;;5043414;28;20411;-67
2022/04/30 14:28:06;;;;;;;9.05;5.43;;;;;;;;;;5039613;28;20445;-69
2022/04/30 14:30:34;;;;;;;9.48;5.70;;;;;;;;;;5042361;28;20422;-67
2022/04/30 14:33:03;;;;;;;10.38;5.93;;;;;;;;;;5040029;28;21735;-67
2022/04/30 14:35:30;;;;;;;10.25;6.20;;;;;;;;;;5040792;28;20473;-66
2022/04/30 14:37:57;;;;;;;9.60;5.90;;;;;;;;;;5023499;28;20418;-67
2022/04/30 14:40:23;;;;;;;13.20;6.50;;;;;;;;;;5042468;28;20464;-67
2022/04/30 14:42:49;;;;;;;10.65;6.63;;;;;;;;;;5041126;28;20436;-67
2022/04/30 14:45:17;;;;;;;11.35;6.22;;;;;;;;;;5038147;28;20426;-67
2022/04/30 14:47:43;;;;;;;9.68;5.93;;;;;;;;;;5032031;28;20440;-67
2022/04/30 14:50:09;;;;;;;9.47;6.60;;;;;;;;;;5039042;28;20434;-67
2022/04/30 14:52:37;;;;;;;10.77;6.53;;;;;;;;;;5025044;28;20904;-67
2022/04/30 14:55:04;;;;;;;10.27;6.50;;;;;;;;;;5040602;28;20423;-67
2022/04/30 14:57:30;;;;;;;10.02;6.32;;;;;;;;;;5040840;28;20499;-67
2022/04/30 14:59:56;;;;;;;10.88;6.18;;;;;;;;;;5035875;28;20419;-67
2022/04/30 15:02:22;;;;;;;9.00;6.20;;;;;;;;;;5040617;28;20398;-68
2022/04/30 15:04:48;;;;;;;11.63;7.03;;;;;;;;;;5041312;28;20757;-68
2022/04/30 15:07:15;;;;;;;11.35;6.80;;;;;;;;;;5037961;28;20435;-67
2022/04/30 15:09:44;;;;;;;11.70;6.83;;;;;;;;;;5041689;28;20448;-67
2022/04/30 15:12:10;;;;;;;10.63;6.60;;;;;;;;;;5023217;28;20423;-66